Time;durP1;ratioP1;P1;durP2;ratioP2;P2;SDS_P1;SDS_P2;PMS_P1;PMS_P2;Temp;Humidity;BMP_temperature;BMP_pressure;BME280_temperature;BME280_humidity;BME280_pressure;Samples;Min_cycle;Max_cycle;Signal;HPM_P1;HPM_P2
2024/04/02 00:02:10;;;;;;;1.08;0.40;;;12.50;71.50;;;;;;2311866;55;21059;-71
2024/04/02 00:04:36;;;;;;;0.90;0.40;;;12.50;71.50;;;;;;2308955;56;21496;-71
2024/04/02 00:07:03;;;;;;;1.37;0.60;;;12.50;71.50;;;;;;2314107;55;20944;-71
2024/04/02 00:09:29;;;;;;;1.23;0.50;;;12.50;71.50;;;;;;2285865;56;20944;-69
2024/04/02 00:12:00;;;;;;;1.08;0.37;;;12.60;71.70;;;;;;2311361;56;21037;-69
2024/04/02 00:14:26;;;;;;;1.08;0.50;;;12.50;71.60;;;;;;2254667;56;21654;-69
2024/04/02 00:16:53;;;;;;;1.45;0.55;;;12.50;71.70;;;;;;2280314;55;21022;-69
2024/04/02 00:19:20;;;;;;;1.02;0.40;;;12.50;71.70;;;;;;2279727;56;21248;-68
2024/04/02 00:21:46;;;;;;;1.00;0.40;;;12.50;71.80;;;;;;2279757;55;21282;-69
2024/04/02 00:24:13;;;;;;;1.27;0.50;;;12.50;71.90;;;;;;2287830;56;20940;-69
2024/04/02 00:26:39;;;;;;;1.10;0.50;;;12.50;71.90;;;;;;2304284;55;21824;-68
2024/04/02 00:29:05;;;;;;;0.82;0.40;;;12.50;71.90;;;;;;2310139;56;21252;-69
2024/04/02 00:31:32;;;;;;;0.88;0.37;;;12.50;72.00;;;;;;2310343;56;21039;-68
2024/04/02 00:33:59;;;;;;;1.23;0.45;;;12.50;72.00;;;;;;2311092;55;20992;-70
2024/04/02 00:36:26;;;;;;;1.40;0.50;;;12.50;72.00;;;;;;2308062;56;20952;-70
2024/04/02 00:38:52;;;;;;;0.95;0.40;;;12.50;72.00;;;;;;2310273;55;20975;-69
2024/04/02 00:41:18;;;;;;;1.00;0.40;;;12.50;71.90;;;;;;2310301;55;21083;-69
2024/04/02 00:43:45;;;;;;;1.05;0.40;;;12.50;71.90;;;;;;2288711;56;20968;-70
2024/04/02 00:46:11;;;;;;;1.70;0.60;;;12.50;71.90;;;;;;2310838;55;20935;-69
2024/04/02 00:48:38;;;;;;;1.25;0.45;;;12.50;71.90;;;;;;2310127;55;20944;-70
2024/04/02 00:51:04;;;;;;;1.67;0.55;;;12.60;72.00;;;;;;2309385;55;20944;-69
2024/04/02 00:53:33;;;;;;;1.30;0.47;;;12.60;72.00;;;;;;2309518;55;20971;-69
2024/04/02 00:56:00;;;;;;;1.15;0.40;;;12.60;71.90;;;;;;2311404;56;21241;-70
2024/04/02 00:58:29;;;;;;;1.12;0.50;;;12.60;72.00;;;;;;2308897;55;21356;-71
2024/04/02 01:00:57;;;;;;;1.35;0.45;;;12.60;72.00;;;;;;2290144;56;21420;-69
2024/04/02 01:03:25;;;;;;;1.58;0.50;;;12.60;72.10;;;;;;2309697;56;21011;-68
2024/04/02 01:05:51;;;;;;;0.82;0.40;;;12.60;72.00;;;;;;2310176;55;21035;-71
2024/04/02 01:08:18;;;;;;;1.70;0.57;;;12.60;72.00;;;;;;2296423;56;21431;-69
2024/04/02 01:10:44;;;;;;;1.52;0.47;;;12.60;72.00;;;;;;2296032;55;21106;-69
2024/04/02 01:13:10;;;;;;;1.52;0.50;;;12.60;71.90;;;;;;2288210;55;21056;-71
2024/04/02 01:15:37;;;;;;;2.15;0.40;;;12.60;71.90;;;;;;2292078;55;21003;-71
2024/04/02 01:18:03;;;;;;;0.90;0.40;;;12.60;71.80;;;;;;2310504;56;20974;-71
2024/04/02 01:20:32;;;;;;;1.12;0.40;;;12.60;71.80;;;;;;2288692;55;21477;-69
2024/04/02 01:22:58;;;;;;;1.55;0.50;;;12.60;71.70;;;;;;2310483;56;21572;-70
2024/04/02 01:25:24;;;;;;;1.30;0.50;;;12.60;71.70;;;;;;2310821;55;20979;-70
2024/04/02 01:27:51;;;;;;;1.35;0.40;;;12.50;71.60;;;;;;2287252;56;21341;-69
2024/04/02 01:30:17;;;;;;;1.10;0.50;;;12.60;71.80;;;;;;2310058;55;21055;-70
2024/04/02 01:32:43;;;;;;;1.00;0.50;;;12.60;71.80;;;;;;2311320;55;21533;-69
2024/04/02 01:35:14;;;;;;;0.82;0.35;;;12.60;71.80;;;;;;2312998;55;20920;-71
2024/04/02 01:37:40;;;;;;;0.88;0.40;;;12.40;71.60;;;;;;2285614;55;21039;-71
2024/04/02 01:40:07;;;;;;;1.10;0.40;;;12.60;71.80;;;;;;2310635;55;21055;-68
2024/04/02 01:42:33;;;;;;;1.45;0.50;;;12.60;71.70;;;;;;2311637;56;21376;-71
2024/04/02 01:44:59;;;;;;;1.95;0.47;;;12.60;71.70;;;;;;2295803;55;21093;-68
2024/04/02 01:47:27;;;;;;;0.82;0.30;;;12.50;71.60;;;;;;2303162;55;21613;-69
2024/04/02 01:49:53;;;;;;;0.85;0.30;;;12.60;71.70;;;;;;2311031;55;21043;-69
2024/04/02 01:52:19;;;;;;;0.80;0.30;;;12.60;71.70;;;;;;2310564;55;20947;-68
2024/04/02 01:54:45;;;;;;;1.12;0.50;;;12.50;71.60;;;;;;2311266;55;21003;-69
2024/04/02 01:57:12;;;;;;;0.95;0.35;;;12.50;71.60;;;;;;2309914;56;21318;-69
2024/04/02 01:59:38;;;;;;;0.45;0.20;;;12.50;71.70;;;;;;2310853;55;20916;-68
2024/04/02 02:02:05;;;;;;;1.20;0.40;;;12.50;71.70;;;;;;2301842;55;21836;-69
2024/04/02 02:04:32;;;;;;;1.58;0.57;;;12.50;71.70;;;;;;2296905;56;20955;-68
2024/04/02 02:06:58;;;;;;;1.37;0.40;;;12.50;71.60;;;;;;2310806;56;21526;-69
2024/04/02 02:09:25;;;;;;;2.30;0.47;;;12.50;71.70;;;;;;2310251;55;20980;-68
2024/04/02 02:11:52;;;;;;;0.90;0.37;;;12.50;71.70;;;;;;2311060;55;20980;-70
2024/04/02 02:14:18;;;;;;;0.93;0.30;;;12.50;71.70;;;;;;2309657;55;20963;-69
2024/04/02 02:16:44;;;;;;;0.93;0.40;;;12.50;71.70;;;;;;2311171;56;21595;-68
2024/04/02 02:19:12;;;;;;;1.40;0.40;;;12.50;71.70;;;;;;2309692;55;20944;-70
2024/04/02 02:21:38;;;;;;;0.50;0.30;;;12.50;71.70;;;;;;2311208;55;20943;-69
2024/04/02 02:24:05;;;;;;;1.65;0.47;;;12.50;71.60;;;;;;2310573;55;21048;-68
2024/04/02 02:26:32;;;;;;;1.08;0.40;;;12.50;71.50;;;;;;2310664;56;21031;-69
2024/04/02 02:28:59;;;;;;;1.20;0.50;;;12.50;72.20;;;;;;2311034;55;20999;-70
2024/04/02 02:31:25;;;;;;;0.95;0.40;;;12.50;71.40;;;;;;2311131;56;21445;-69
2024/04/02 02:33:51;;;;;;;1.00;0.40;;;12.50;71.40;;;;;;2310722;56;21044;-70
2024/04/02 02:36:17;;;;;;;0.93;0.45;;;12.50;71.40;;;;;;2309416;55;20943;-69
2024/04/02 02:38:48;;;;;;;1.08;0.40;;;12.50;71.50;;;;;;2300694;55;21293;-71
2024/04/02 02:41:14;;;;;;;3.28;0.40;;;12.50;71.40;;;;;;2295858;55;20996;-71
2024/04/02 02:43:40;;;;;;;1.23;0.40;;;12.50;72.30;;;;;;2292029;56;21055;-71
2024/04/02 02:46:07;;;;;;;2.15;0.40;;;12.50;71.50;;;;;;2311006;56;21027;-68
2024/04/02 02:48:33;;;;;;;0.82;0.32;;;12.50;71.60;;;;;;2287034;55;21801;-69
2024/04/02 02:50:59;;;;;;;0.95;0.50;;;12.40;71.50;;;;;;2302000;55;20931;-68
2024/04/02 02:53:25;;;;;;;1.80;0.50;;;12.40;71.40;;;;;;2311053;55;20979;-68
2024/04/02 02:55:55;;;;;;;0.82;0.30;;;12.40;71.50;;;;;;2311150;56;21007;-68
2024/04/02 02:58:22;;;;;;;1.67;0.52;;;12.40;72.30;;;;;;2310087;56;20992;-70
2024/04/02 03:00:48;;;;;;;1.23;0.50;;;12.40;71.50;;;;;;2310891;56;20951;-68
2024/04/02 03:03:15;;;;;;;1.30;0.35;;;12.40;71.40;;;;;;2294289;56;21017;-68
2024/04/02 03:05:52;;;;;;;0.65;0.30;;;12.40;71.40;;;;;;2304142;55;20951;-68
2024/04/02 03:08:18;;;;;;;1.10;0.47;;;12.40;71.50;;;;;;2310546;56;21722;-68
2024/04/02 03:11:03;;;;;;;0.85;0.35;;;12.40;71.50;;;;;;2285535;55;21024;-71
2024/04/02 03:13:33;;;;;;;1.62;0.40;;;12.40;71.20;;;;;;2291685;55;21510;-71
2024/04/02 03:16:00;;;;;;;2.22;0.40;;;12.40;71.30;;;;;;2308063;55;21086;-71
2024/04/02 03:18:27;;;;;;;1.12;0.30;;;12.40;71.40;;;;;;2310731;55;20939;-68
2024/04/02 03:20:53;;;;;;;1.90;0.47;;;12.40;71.50;;;;;;2310862;55;21521;-68
2024/04/02 03:23:20;;;;;;;1.10;0.30;;;12.30;71.50;;;;;;2310239;56;21509;-67
2024/04/02 03:25:56;;;;;;;0.85;0.30;;;12.30;71.50;;;;;;2310424;55;21016;-69
2024/04/02 03:28:23;;;;;;;0.80;0.28;;;12.40;71.30;;;;;;2310381;55;21444;-70
2024/04/02 03:30:49;;;;;;;0.37;0.20;;;12.30;71.50;;;;;;2298595;56;21110;-69
2024/04/02 03:33:16;;;;;;;3.33;0.40;;;12.30;71.50;;;;;;2280409;55;21039;-70
2024/04/02 03:35:42;;;;;;;1.17;0.37;;;12.30;71.60;;;;;;2310733;56;21307;-68
2024/04/02 03:38:08;;;;;;;0.77;0.20;;;12.30;71.70;;;;;;2309509;55;21250;-69
2024/04/02 03:40:41;;;;;;;0.98;0.30;;;12.30;71.70;;;;;;2289397;55;20943;-68
2024/04/02 03:43:09;;;;;;;0.85;0.30;;;12.30;71.40;;;;;;2310927;56;21264;-72
2024/04/02 03:45:41;;;;;;;0.47;0.20;;;12.30;71.60;;;;;;2310568;56;20963;-68
2024/04/02 03:48:08;;;;;;;0.68;0.37;;;12.30;71.40;;;;;;2310789;56;21227;-69
2024/04/02 03:50:37;;;;;;;1.35;0.40;;;12.30;71.60;;;;;;2304502;55;21084;-68
2024/04/02 03:53:06;;;;;;;1.27;0.30;;;12.30;71.50;;;;;;2294964;55;20935;-70
2024/04/02 03:55:36;;;;;;;0.62;0.32;;;12.30;71.70;;;;;;2272915;56;22725;-68
2024/04/02 03:58:03;;;;;;;1.58;0.60;;;12.30;71.80;;;;;;2288007;56;21000;-69
2024/04/02 04:00:30;;;;;;;1.25;0.30;;;12.30;71.70;;;;;;2307487;55;21335;-68
2024/04/02 04:02:59;;;;;;;1.20;0.40;;;12.30;71.70;;;;;;2311297;56;21012;-71
2024/04/02 04:05:25;;;;;;;1.25;0.40;;;12.30;71.70;;;;;;2310436;55;20979;-68
2024/04/02 04:07:51;;;;;;;0.82;0.35;;;12.30;71.70;;;;;;2311608;56;21409;-69
2024/04/02 04:10:18;;;;;;;0.75;0.32;;;12.30;71.80;;;;;;2310657;55;21486;-68
2024/04/02 04:12:45;;;;;;;2.03;0.40;;;12.40;72.60;;;;;;2310425;56;20920;-70
2024/04/02 04:15:11;;;;;;;1.65;0.43;;;12.30;71.90;;;;;;2310405;56;20987;-69
2024/04/02 04:17:38;;;;;;;0.90;0.40;;;12.30;71.80;;;;;;2310774;56;21031;-69
2024/04/02 04:20:07;;;;;;;0.75;0.30;;;12.30;71.90;;;;;;2310782;56;20986;-69
2024/04/02 04:22:33;;;;;;;1.05;0.40;;;12.30;72.60;;;;;;2291556;55;21061;-68
2024/04/02 04:25:01;;;;;;;1.17;0.30;;;12.30;72.00;;;;;;2306021;55;21397;-70
2024/04/02 04:27:32;;;;;;;1.70;0.40;;;12.20;71.90;;;;;;2310495;55;20980;-69
2024/04/02 04:30:02;;;;;;;0.90;0.30;;;12.30;72.10;;;;;;2310592;55;21007;-70
2024/04/02 04:32:28;;;;;;;1.15;0.40;;;12.30;72.20;;;;;;2285131;55;21041;-69
2024/04/02 04:34:56;;;;;;;1.30;0.30;;;12.30;72.10;;;;;;2292559;56;20943;-69
2024/04/02 04:37:23;;;;;;;0.50;0.30;;;12.30;72.00;;;;;;2310578;55;20955;-71
2024/04/02 04:39:49;;;;;;;1.40;0.40;;;12.30;72.00;;;;;;2280349;55;21059;-70
2024/04/02 04:42:16;;;;;;;1.37;0.40;;;12.30;72.10;;;;;;2281182;55;20987;-69
2024/04/02 04:44:45;;;;;;;1.20;0.32;;;12.30;72.10;;;;;;2272971;54;20970;-68
2024/04/02 04:47:11;;;;;;;1.35;0.35;;;12.30;72.00;;;;;;2279960;55;21487;-68
2024/04/02 04:49:37;;;;;;;1.12;0.32;;;12.30;72.10;;;;;;2280226;55;21053;-69
2024/04/02 04:52:04;;;;;;;3.40;0.50;;;12.30;72.00;;;;;;2250186;56;21083;-71
2024/04/02 04:54:35;;;;;;;0.85;0.37;;;12.30;72.10;;;;;;2251091;55;20991;-69
2024/04/02 04:57:01;;;;;;;1.33;0.40;;;12.30;72.10;;;;;;2286290;55;20955;-69
2024/04/02 04:59:28;;;;;;;1.17;0.30;;;12.30;72.10;;;;;;2310534;56;20940;-67
2024/04/02 05:01:56;;;;;;;1.87;0.40;;;12.30;72.10;;;;;;2310195;55;21044;-69
2024/04/02 05:04:22;;;;;;;1.00;0.50;;;12.30;72.20;;;;;;2310218;55;21043;-68
2024/04/02 05:06:49;;;;;;;1.20;0.35;;;12.20;72.00;;;;;;2309953;56;20943;-68
2024/04/02 05:09:15;;;;;;;1.02;0.40;;;12.20;72.00;;;;;;2310460;55;21000;-70
2024/04/02 05:11:42;;;;;;;1.20;0.43;;;12.20;72.00;;;;;;2310275;55;21118;-68
2024/04/02 05:14:08;;;;;;;1.48;0.50;;;12.20;72.10;;;;;;2310529;55;21440;-70
2024/04/02 05:16:34;;;;;;;0.65;0.30;;;12.20;72.20;;;;;;2311347;55;22130;-70
2024/04/02 05:19:01;;;;;;;0.70;0.30;;;12.30;72.30;;;;;;2310430;56;20955;-67
2024/04/02 05:21:27;;;;;;;0.55;0.30;;;12.20;72.30;;;;;;2311147;56;21057;-68
2024/04/02 05:23:54;;;;;;;0.98;0.30;;;12.20;72.30;;;;;;2311315;56;21022;-68
2024/04/02 05:26:20;;;;;;;1.08;0.43;;;12.20;72.30;;;;;;2310086;56;21272;-69
2024/04/02 05:28:47;;;;;;;0.37;0.25;;;12.20;72.30;;;;;;2310475;55;21086;-68
2024/04/02 05:31:15;;;;;;;1.25;0.30;;;12.20;72.30;;;;;;2310429;55;20955;-71
2024/04/02 05:33:43;;;;;;;1.27;0.50;;;12.20;72.40;;;;;;2297766;55;20973;-69
2024/04/02 05:36:10;;;;;;;0.90;0.30;;;12.30;72.50;;;;;;2300725;55;21066;-69
2024/04/02 05:38:37;;;;;;;1.52;0.35;;;12.20;72.40;;;;;;2310429;56;21047;-69
2024/04/02 05:41:03;;;;;;;1.70;0.30;;;12.20;72.40;;;;;;2310421;55;20963;-68
2024/04/02 05:43:29;;;;;;;0.40;0.22;;;12.20;72.30;;;;;;2310493;55;21315;-70
2024/04/02 05:45:56;;;;;;;4.12;0.90;;;12.20;72.30;;;;;;2309850;55;20944;-70
2024/04/02 05:48:22;;;;;;;1.42;0.43;;;12.20;72.30;;;;;;2309351;55;20935;-68
2024/04/02 05:50:55;;;;;;;1.12;0.47;;;12.20;72.20;;;;;;2309389;56;20947;-68
2024/04/02 05:53:21;;;;;;;0.68;0.28;;;12.20;72.00;;;;;;2310302;56;20943;-70
2024/04/02 05:55:48;;;;;;;0.85;0.37;;;12.20;72.20;;;;;;2310652;56;21861;-70
2024/04/02 05:58:14;;;;;;;3.15;0.32;;;12.20;72.20;;;;;;2310277;55;20968;-70
2024/04/02 06:00:41;;;;;;;0.93;0.30;;;12.20;72.30;;;;;;2310571;55;21035;-71
2024/04/02 06:03:08;;;;;;;1.98;0.40;;;12.20;72.30;;;;;;2310648;56;21379;-67
2024/04/02 06:05:37;;;;;;;1.37;0.40;;;12.20;72.40;;;;;;2307298;55;21128;-69
2024/04/02 06:08:03;;;;;;;1.15;0.37;;;12.30;72.60;;;;;;2292969;55;20940;-68
2024/04/02 06:10:30;;;;;;;2.75;0.50;;;12.30;72.70;;;;;;2311311;55;20939;-71
2024/04/02 06:12:56;;;;;;;2.37;0.50;;;12.20;72.60;;;;;;2310107;55;20999;-71
2024/04/02 06:15:24;;;;;;;4.87;1.02;;;12.30;72.70;;;;;;2308384;56;21061;-69
2024/04/02 06:17:52;;;;;;;1.85;0.50;;;12.30;72.70;;;;;;2289977;56;21079;-68
2024/04/02 06:20:24;;;;;;;1.65;0.50;;;12.30;72.70;;;;;;2310298;55;20959;-69
2024/04/02 06:22:53;;;;;;;2.05;0.60;;;12.30;72.70;;;;;;2311260;55;21110;-71
2024/04/02 06:25:19;;;;;;;4.03;0.62;;;12.30;72.70;;;;;;2310718;56;21047;-71
2024/04/02 06:27:47;;;;;;;3.10;0.60;;;12.30;72.80;;;;;;2303962;55;20977;-71
2024/04/02 06:30:14;;;;;;;1.83;0.60;;;12.30;72.90;;;;;;2294794;55;21714;-69
2024/04/02 06:32:40;;;;;;;2.42;0.60;;;12.40;73.00;;;;;;2311180;56;21038;-68
2024/04/02 06:35:06;;;;;;;2.08;0.70;;;12.40;73.10;;;;;;2311013;56;20995;-71
2024/04/02 06:37:33;;;;;;;5.32;0.90;;;12.40;73.20;;;;;;2310848;55;21011;-70
2024/04/02 06:40:00;;;;;;;3.65;0.82;;;12.40;73.30;;;;;;2310620;55;21015;-68
2024/04/02 06:42:27;;;;;;;2.75;0.70;;;12.40;73.30;;;;;;2285424;56;21046;-70
2024/04/02 06:44:54;;;;;;;2.97;0.70;;;12.50;73.40;;;;;;2280340;56;21053;-69
2024/04/02 06:47:21;;;;;;;5.03;0.98;;;12.50;74.00;;;;;;2279231;54;20996;-72
2024/04/02 06:49:47;;;;;;;1.62;0.50;;;12.50;73.40;;;;;;2279516;56;21014;-70
2024/04/02 06:52:13;;;;;;;3.47;0.73;;;12.50;73.40;;;;;;2279325;56;20982;-69
2024/04/02 06:54:40;;;;;;;5.03;1.00;;;12.60;73.40;;;;;;2279647;55;20994;-68
2024/04/02 06:57:08;;;;;;;2.70;0.75;;;12.60;73.40;;;;;;2279608;55;21503;-70
2024/04/02 06:59:38;;;;;;;3.33;1.00;;;12.70;73.50;;;;;;2280515;55;20969;-69
2024/04/02 07:02:05;;;;;;;4.95;0.90;;;12.70;73.60;;;;;;2305292;55;21010;-69
2024/04/02 07:04:32;;;;;;;3.60;1.00;;;12.70;73.50;;;;;;2305944;55;21031;-68
2024/04/02 07:06:58;;;;;;;2.92;0.80;;;12.70;73.50;;;;;;2307063;55;21352;-70
2024/04/02 07:09:25;;;;;;;2.75;0.60;;;12.90;73.80;;;;;;2305848;55;21481;-69
2024/04/02 07:11:51;;;;;;;4.32;0.90;;;12.90;73.70;;;;;;2305988;55;21247;-69
2024/04/02 07:14:20;;;;;;;5.28;1.05;;;12.90;73.60;;;;;;2279398;55;21017;-69
2024/04/02 07:16:46;;;;;;;3.22;0.70;;;12.90;73.70;;;;;;2305487;55;20975;-69
2024/04/02 07:19:13;;;;;;;3.40;0.80;;;12.90;73.60;;;;;;2305871;55;21027;-68
2024/04/02 07:21:40;;;;;;;4.43;0.70;;;13.00;73.60;;;;;;2305644;55;20966;-70
2024/04/02 07:24:06;;;;;;;3.42;0.95;;;13.00;73.50;;;;;;2305766;55;20979;-69
2024/04/02 07:26:34;;;;;;;4.07;1.08;;;13.00;73.40;;;;;;2306351;55;21023;-69
2024/04/02 07:29:00;;;;;;;4.80;1.08;;;13.10;73.40;;;;;;2308197;55;21873;-71
2024/04/02 07:31:28;;;;;;;4.05;1.02;;;13.10;73.20;;;;;;2305920;55;21449;-69
2024/04/02 07:33:54;;;;;;;6.65;1.00;;;13.10;73.10;;;;;;2306019;55;21406;-69
2024/04/02 07:36:21;;;;;;;3.50;0.75;;;13.10;73.10;;;;;;2305425;55;21473;-69
2024/04/02 07:38:47;;;;;;;3.15;1.00;;;13.10;73.00;;;;;;2305874;55;21350;-68
2024/04/02 07:41:13;;;;;;;5.15;1.08;;;13.20;73.10;;;;;;2305556;55;21015;-70
2024/04/02 07:43:39;;;;;;;3.40;1.12;;;13.20;72.80;;;;;;2305630;55;20976;-71
2024/04/02 07:46:07;;;;;;;4.15;0.80;;;13.20;72.90;;;;;;2305588;55;21047;-69
2024/04/02 07:48:34;;;;;;;3.58;0.80;;;13.20;72.90;;;;;;2306036;55;21138;-68
2024/04/02 07:51:10;;;;;;;7.37;1.45;;;13.30;72.80;;;;;;2305655;55;20988;-69
2024/04/02 07:53:36;;;;;;;3.80;0.80;;;13.30;72.40;;;;;;2305744;55;20951;-68
2024/04/02 07:56:03;;;;;;;6.00;0.90;;;13.30;72.80;;;;;;2305296;55;20908;-68
2024/04/02 07:58:29;;;;;;;4.55;0.82;;;13.30;72.60;;;;;;2305806;55;20951;-71
2024/04/02 08:00:55;;;;;;;5.68;1.10;;;13.40;72.80;;;;;;2305438;55;21757;-69
2024/04/02 08:03:22;;;;;;;4.90;1.23;;;13.40;72.90;;;;;;2305306;55;21012;-68
2024/04/02 08:06:00;;;;;;;5.10;1.23;;;13.40;72.70;;;;;;2305607;55;20991;-70
2024/04/02 08:08:29;;;;;;;2.87;0.90;;;13.40;72.10;;;;;;2306113;55;21007;-69
2024/04/02 08:10:57;;;;;;;3.95;1.10;;;13.50;72.70;;;;;;2305773;55;20992;-69
2024/04/02 08:13:24;;;;;;;5.43;1.33;;;13.50;72.60;;;;;;2305330;55;20983;-70
2024/04/02 08:15:51;;;;;;;5.43;1.20;;;13.50;72.50;;;;;;2305311;55;20967;-69
2024/04/02 08:18:18;;;;;;;6.05;1.08;;;13.50;73.30;;;;;;2280354;55;20947;-71
2024/04/02 08:20:44;;;;;;;4.80;1.05;;;13.60;72.90;;;;;;2305748;55;21311;-69
2024/04/02 08:23:11;;;;;;;6.82;1.37;;;13.60;72.90;;;;;;2305403;55;21874;-70
2024/04/02 08:25:38;;;;;;;5.60;1.23;;;13.60;73.00;;;;;;2306163;55;20960;-69
2024/04/02 08:28:05;;;;;;;5.45;1.27;;;13.70;73.00;;;;;;2305824;55;21470;-71
2024/04/02 08:30:32;;;;;;;7.28;1.40;;;13.70;73.00;;;;;;2306400;55;21011;-69
2024/04/02 08:32:58;;;;;;;4.68;1.00;;;13.70;73.10;;;;;;2306109;55;21007;-68
2024/04/02 08:35:26;;;;;;;4.68;1.30;;;13.80;73.30;;;;;;2305627;55;21095;-69
2024/04/02 08:37:52;;;;;;;3.42;1.00;;;13.80;73.10;;;;;;2305332;55;20964;-69
2024/04/02 08:40:19;;;;;;;3.10;0.90;;;13.80;73.40;;;;;;2305118;55;21027;-70
2024/04/02 08:42:45;;;;;;;5.28;1.40;;;13.90;73.60;;;;;;2292215;55;21474;-69
2024/04/02 08:45:12;;;;;;;5.37;1.33;;;14.00;73.80;;;;;;2293553;55;21007;-70
2024/04/02 08:47:39;;;;;;;4.82;0.75;;;14.00;74.00;;;;;;2305799;55;21168;-69
2024/04/02 08:50:06;;;;;;;4.32;1.10;;;14.10;74.00;;;;;;2305395;55;21003;-70
2024/04/02 08:52:33;;;;;;;6.95;1.42;;;14.10;73.70;;;;;;2305895;55;20976;-69
2024/04/02 08:55:00;;;;;;;3.75;1.10;;;14.20;72.90;;;;;;2305969;55;21489;-69
2024/04/02 08:57:27;;;;;;;5.25;1.27;;;14.20;72.90;;;;;;2306120;55;21075;-70
2024/04/02 08:59:53;;;;;;;2.50;0.82;;;14.20;72.90;;;;;;2305581;55;21207;-70
2024/04/02 09:02:20;;;;;;;4.12;0.82;;;14.30;73.10;;;;;;2305967;55;21055;-70
2024/04/02 09:04:47;;;;;;;4.82;1.73;;;14.30;73.00;;;;;;2305128;55;21028;-67
2024/04/02 09:07:13;;;;;;;3.78;1.05;;;14.40;73.30;;;;;;2305068;55;21404;-72
2024/04/02 09:09:41;;;;;;;4.43;1.20;;;14.40;73.50;;;;;;2285852;55;20961;-69
2024/04/02 09:12:08;;;;;;;4.05;0.88;;;14.40;73.80;;;;;;2298974;55;21011;-69
2024/04/02 09:14:38;;;;;;;3.97;1.05;;;14.50;74.10;;;;;;2305689;55;20935;-72
2024/04/02 09:17:06;;;;;;;3.50;1.20;;;14.60;74.50;;;;;;2305773;55;20959;-71
2024/04/02 09:19:32;;;;;;;3.87;1.20;;;14.70;74.70;;;;;;2305402;55;21015;-70
2024/04/02 09:21:58;;;;;;;3.55;0.82;;;14.80;75.10;;;;;;2304766;55;20995;-68
2024/04/02 09:24:26;;;;;;;4.37;1.00;;;14.90;74.60;;;;;;2294378;54;1699637;-69
2024/04/02 09:26:52;;;;;;;3.65;0.82;;;15.00;75.20;;;;;;2306224;55;20972;-70
2024/04/02 09:29:18;;;;;;;5.10;0.70;;;15.10;75.20;;;;;;2304779;55;21035;-70
2024/04/02 09:31:44;;;;;;;5.00;0.80;;;15.00;75.00;;;;;;2294335;55;21038;-70
2024/04/02 09:34:14;;;;;;;3.53;0.80;;;15.30;75.20;;;;;;2292128;55;20944;-70
2024/04/02 09:36:46;;;;;;;3.10;0.80;;;15.40;75.20;;;;;;2305870;55;20955;-69
2024/04/02 09:39:13;;;;;;;3.30;0.73;;;15.50;74.80;;;;;;2305022;55;21020;-70
2024/04/02 09:41:44;;;;;;;2.80;0.60;;;15.60;75.00;;;;;;2306127;55;21055;-71
2024/04/02 09:44:18;;;;;;;2.87;0.52;;;15.60;74.00;;;;;;2305019;55;21063;-72
2024/04/02 09:46:44;;;;;;;3.25;0.50;;;15.70;73.70;;;;;;2305009;55;21015;-71
2024/04/02 09:49:11;;;;;;;2.47;0.60;;;15.80;74.20;;;;;;2305512;55;21432;-71
2024/04/02 09:51:41;;;;;;;2.80;0.60;;;15.80;74.10;;;;;;2305952;55;21255;-69
2024/04/02 09:54:08;;;;;;;3.17;0.60;;;15.90;73.50;;;;;;2305635;55;21028;-70
2024/04/02 09:56:34;;;;;;;2.85;0.73;;;15.90;73.60;;;;;;2305919;55;21015;-71
2024/04/02 09:59:04;;;;;;;4.72;0.80;;;16.00;73.30;;;;;;2304493;55;21060;-68
2024/04/02 10:01:33;;;;;;;4.20;0.65;;;16.00;72.50;;;;;;2305136;55;21062;-69
2024/04/02 10:04:02;;;;;;;3.45;0.80;;;16.00;72.40;;;;;;2305412;55;21319;-70
2024/04/02 10:06:31;;;;;;;3.15;0.85;;;16.00;71.60;;;;;;2305713;55;21119;-70
2024/04/02 10:09:03;;;;;;;2.83;0.68;;;16.00;71.00;;;;;;2305366;55;20948;-69
2024/04/02 10:12:02;;;;;;;;;;;16.00;70.60;;;;;;2301441;55;20989;-70
2024/04/02 10:14:28;;;;;;;3.15;0.65;;;16.10;69.10;;;;;;2295896;55;20203;-70
2024/04/02 10:16:56;;;;;;;4.97;0.80;;;16.00;71.10;;;;;;2305245;55;20974;-71
2024/04/02 10:19:23;;;;;;;2.65;0.57;;;16.00;71.10;;;;;;2305518;55;21308;-71
2024/04/02 10:21:51;;;;;;;4.32;0.85;;;16.00;71.30;;;;;;2305589;55;20944;-71
2024/04/02 10:24:25;;;;;;;2.47;0.80;;;16.00;71.20;;;;;;2305414;55;21300;-70
2024/04/02 10:26:54;;;;;;;2.80;0.82;;;16.00;70.40;;;;;;2306175;55;21524;-71
2024/04/02 10:29:31;;;;;;;3.20;0.70;;;15.90;70.80;;;;;;2305557;55;22009;-70
2024/04/02 10:31:57;;;;;;;2.65;0.70;;;16.00;71.20;;;;;;2306054;55;21083;-71
2024/04/02 10:34:24;;;;;;;4.15;0.98;;;16.00;71.80;;;;;;2305063;55;21279;-70
2024/04/02 10:36:51;;;;;;;4.25;1.23;;;16.00;71.60;;;;;;2305442;55;21043;-68
2024/04/02 10:39:17;;;;;;;2.28;0.55;;;16.00;71.90;;;;;;2305799;55;20967;-70
2024/04/02 10:41:46;;;;;;;4.30;1.00;;;16.10;72.20;;;;;;2305090;55;21034;-70
2024/04/02 10:44:13;;;;;;;7.55;0.85;;;16.10;72.40;;;;;;2278888;56;21109;-70
2024/04/02 10:46:40;;;;;;;2.83;0.80;;;16.20;72.70;;;;;;2306008;55;20936;-70
2024/04/02 10:49:06;;;;;;;3.35;0.73;;;16.20;72.80;;;;;;2304710;55;21899;-78
2024/04/02 10:51:33;;;;;;;5.12;0.80;;;16.30;72.90;;;;;;2305579;55;21070;-72
2024/04/02 10:54:00;;;;;;;3.95;0.90;;;16.40;72.80;;;;;;2305964;55;21123;-71
2024/04/02 10:56:27;;;;;;;3.55;0.80;;;16.40;72.50;;;;;;2305630;55;20964;-74
2024/04/02 10:58:54;;;;;;;3.92;1.02;;;16.50;72.30;;;;;;2305608;55;20972;-73
2024/04/02 11:01:20;;;;;;;2.28;0.60;;;16.50;72.40;;;;;;2305240;55;20960;-73
2024/04/02 11:03:52;;;;;;;3.42;0.50;;;16.60;72.90;;;;;;2305970;55;21043;-73
2024/04/02 11:06:19;;;;;;;;;;;16.70;72.70;;;;;;2308194;55;20971;-74
2024/04/02 11:08:48;;;;;;;1.85;0.75;;;16.80;69.80;;;;;;2305491;55;20342;-72
2024/04/02 11:11:22;;;;;;;1.50;0.60;;;16.80;72.80;;;;;;2304873;55;21270;-71
2024/04/02 11:13:48;;;;;;;3.78;0.65;;;16.90;72.00;;;;;;2305746;55;21290;-71
2024/04/02 11:16:15;;;;;;;4.30;0.75;;;17.00;73.20;;;;;;2304870;55;20998;-72
2024/04/02 11:18:41;;;;;;;4.65;0.62;;;17.00;72.80;;;;;;2305368;55;21079;-70
2024/04/02 11:21:07;;;;;;;1.90;0.50;;;17.10;73.20;;;;;;2305296;55;20967;-73
2024/04/02 11:26:23;;;;;;;3.15;0.90;;;17.40;72.70;;;;;;2307629;55;20967;-72
2024/04/02 11:28:49;;;;;;;1.92;0.55;;;17.40;73.20;;;;;;2305215;55;20980;-72
2024/04/02 11:31:16;;;;;;;0.60;0.30;;;17.50;73.00;;;;;;2304858;55;20999;-74
2024/04/02 11:33:43;;;;;;;2.58;0.60;;;17.60;72.80;;;;;;2305859;55;20948;-71
2024/04/02 11:36:09;;;;;;;2.42;0.50;;;17.60;73.10;;;;;;2305287;55;21368;-72
2024/04/02 11:38:36;;;;;;;1.85;0.50;;;17.70;73.00;;;;;;2305654;55;20978;-74
2024/04/02 11:41:07;;;;;;;2.35;0.60;;;17.80;72.70;;;;;;2304979;55;21000;-71
2024/04/02 11:43:33;;;;;;;1.42;0.30;;;17.80;72.10;;;;;;2305806;55;20988;-71
2024/04/02 11:46:00;;;;;;;1.42;0.40;;;17.90;71.50;;;;;;2305934;55;21047;-72
2024/04/02 11:48:26;;;;;;;2.95;0.65;;;17.80;70.70;;;;;;2305663;55;22385;-72
2024/04/02 11:50:52;;;;;;;1.40;0.40;;;17.90;71.00;;;;;;2305642;55;21548;-71
2024/04/02 11:53:18;;;;;;;2.33;0.45;;;17.90;71.20;;;;;;2305572;55;21099;-74
2024/04/02 11:55:49;;;;;;;4.00;0.43;;;17.90;71.50;;;;;;2305817;55;21035;-71
2024/04/02 12:01:02;;;;;;;4.50;0.40;;;17.90;70.30;;;;;;2306203;55;20971;-70
2024/04/02 12:03:30;;;;;;;1.52;0.30;;;17.90;69.60;;;;;;2305217;55;20967;-69
2024/04/02 12:05:57;;;;;;;3.25;0.57;;;17.90;69.90;;;;;;2305225;55;21488;-70
2024/04/02 12:08:24;;;;;;;1.73;0.50;;;17.90;70.00;;;;;;2304370;55;21070;-71
2024/04/02 12:10:50;;;;;;;2.67;0.60;;;17.80;70.00;;;;;;2305415;55;21027;-72
2024/04/02 12:13:17;;;;;;;4.32;1.15;;;17.90;69.60;;;;;;2305084;55;21236;-70
2024/04/02 12:15:43;;;;;;;2.10;0.60;;;17.80;69.30;;;;;;2305366;55;21537;-71
2024/04/02 12:18:09;;;;;;;0.70;0.30;;;17.80;69.50;;;;;;2294990;55;21063;-70
2024/04/02 12:20:36;;;;;;;1.15;0.43;;;17.70;69.30;;;;;;2267193;55;21041;-70
2024/04/02 12:23:04;;;;;;;2.42;0.43;;;17.70;69.50;;;;;;2303806;55;21588;-69
2024/04/02 12:25:30;;;;;;;3.10;0.73;;;17.70;69.60;;;;;;2305204;55;21015;-69
2024/04/02 12:27:57;;;;;;;2.50;0.50;;;17.70;69.40;;;;;;2305839;55;21138;-69
2024/04/02 12:30:23;;;;;;;2.67;0.70;;;17.70;69.40;;;;;;2304774;55;21039;-70
2024/04/02 12:32:49;;;;;;;1.65;0.50;;;17.70;69.00;;;;;;2306019;55;21868;-70
2024/04/02 12:35:16;;;;;;;0.93;0.37;;;17.60;68.50;;;;;;2305458;55;20931;-69
2024/04/02 12:37:42;;;;;;;3.17;0.70;;;17.60;68.30;;;;;;2305828;55;20928;-70
2024/04/02 12:40:11;;;;;;;3.87;1.65;;;17.50;67.70;;;;;;2305865;55;20956;-71
2024/04/02 12:42:38;;;;;;;3.85;0.40;;;17.50;67.90;;;;;;2305145;55;20944;-69
2024/04/02 12:45:05;;;;;;;1.42;0.50;;;17.50;68.60;;;;;;2305875;55;21003;-69
2024/04/02 12:47:31;;;;;;;2.80;0.50;;;17.40;68.50;;;;;;2304834;55;21126;-69
2024/04/02 12:49:58;;;;;;;2.22;0.50;;;17.40;68.20;;;;;;2305792;55;20983;-71
2024/04/02 12:52:25;;;;;;;1.73;0.55;;;17.30;68.40;;;;;;2305258;55;21031;-70
2024/04/02 12:54:53;;;;;;;1.35;0.50;;;17.30;68.90;;;;;;2306040;55;20975;-69